Portada
METAR-TAF:

METAR-TAF

Aeropuertos :

Aeropuerto de Jerez

Jerez de la Frontera, España

latitud: 36-45N, longitud: 006-04W, altitud: 27 m

Observación

El informe se hizo hace 28 minutos, a las 04:00 UTC
Viento 2 kt con dirección variable
Temperatura 14°C
Humedad 94%
Presión 1011 hPa
Visibilidad 10 km o más
Cielo nuboso a una altura de 6000 ft

METAR: LEJR 210400Z AUTO VRB02KT 9999 BKN060 14/13 Q1011

Hora: 05:28 (04:28 UTC)

Pronóstico

El informe se hizo hace 5 horas y 28 minutos, a las 23:00 UTC
Pronóstico válido del 21 a las 00 UTC al 21 a las 24 UTC
Viento 5 kt del sur-suroeste
Visibilidad 10 km o más
Escasas nubes a una altura de 3000 ft
Probabilidad 40% :
Temporalmente
del 21 a las 03 UTC al 21 a las 10 UTC
Visibilidad: 4000 m
Cielo nuboso a una altura de 1000 ft
neblina

TAF: LEJR 202300Z 2100/2124 21005KT 9999 FEW030 TX17/2114Z TN11/2106Z PROB40 TEMPO 2103/2110 4000 BR BKN010

Observaciones y pronósticos meteorológicos de más de 4000 aeropuertos (mensajes METAR y TAF).

Los puntos amarillos y rojos representan las estaciones disponibles.

Ponga el ratón en el punto deseado para ver el nombre de la estación.

Haga clic para ver las observaciones y los pronósticos meteorológicos.

Para cambiar el mapa : haga clic en los botones verdes con una cruz de color negro para hacer un zoom, en el botón verde con un guión para alejar o en las flechas verdes para mapas adyacentes.


METAR-TAF: